SWA2571 KCMH-KSTL
Flight info
| Callsign | SWA2571 |
|---|---|
| Flight time | N/A |
| Altitude | 36000 |
| Route | PKACZ TARRY DQN VHP AARCH2 |
| Aircraft | B737/M-SADE2E3GIJ4RWZ/LB1D1 |
Departure
| Time | 2026-04-28 00:43 |
|---|---|
| Airport | John Glenn Columbus International Airport (KCMH) |
Arrival
| Time | N/A |
|---|---|
| Airport | St. Louis Lambert International Airport (KSTL) |
| Time | Latitude | Longitude | Altitude | Speed | Heading |
|---|---|---|---|---|---|
| 2026-04-28 00:29 | 39.99648 | -82.88506 | 814 ft | 0 kts | 4° |
| 2026-04-28 00:32 | 39.99640 | -82.88506 | 814 ft | 2 kts | 5° |
| 2026-04-28 00:33 | 39.99625 | -82.88508 | 814 ft | 2 kts | 4° |
| 2026-04-28 00:33 | 39.99611 | -82.88507 | 815 ft | 2 kts | 338° |
| 2026-04-28 00:33 | 39.99598 | -82.88497 | 815 ft | 2 kts | 314° |
| 2026-04-28 00:33 | 39.99589 | -82.88481 | 815 ft | 2 kts | 287° |
| 2026-04-28 00:34 | 39.99588 | -82.88466 | 814 ft | 0 kts | 270° |
| 2026-04-28 00:34 | 39.99588 | -82.88464 | 814 ft | 0 kts | 271° |
| 2026-04-28 00:36 | 39.99588 | -82.88465 | 814 ft | 0 kts | 271° |
| 2026-04-28 00:36 | 39.99590 | -82.88517 | 814 ft | 9 kts | 273° |
| 2026-04-28 00:36 | 39.99595 | -82.88622 | 814 ft | 13 kts | 274° |
| 2026-04-28 00:37 | 39.99603 | -82.88744 | 813 ft | 13 kts | 275° |
| 2026-04-28 00:37 | 39.99610 | -82.88853 | 813 ft | 9 kts | 264° |
| 2026-04-28 00:37 | 39.99569 | -82.88902 | 813 ft | 8 kts | 214° |
| 2026-04-28 00:37 | 39.99546 | -82.88988 | 813 ft | 13 kts | 270° |
| 2026-04-28 00:38 | 39.99553 | -82.89117 | 813 ft | 14 kts | 275° |
| 2026-04-28 00:38 | 39.99562 | -82.89253 | 813 ft | 14 kts | 274° |
| 2026-04-28 00:38 | 39.99570 | -82.89387 | 813 ft | 14 kts | 274° |
| 2026-04-28 00:38 | 39.99577 | -82.89517 | 813 ft | 14 kts | 274° |
| 2026-04-28 00:39 | 39.99584 | -82.89642 | 813 ft | 13 kts | 274° |
| 2026-04-28 00:39 | 39.99592 | -82.89765 | 813 ft | 13 kts | 275° |
| 2026-04-28 00:39 | 39.99599 | -82.89883 | 813 ft | 12 kts | 274° |
| 2026-04-28 00:39 | 39.99605 | -82.90015 | 812 ft | 17 kts | 274° |
| 2026-04-28 00:40 | 39.99614 | -82.90188 | 812 ft | 19 kts | 274° |
| 2026-04-28 00:40 | 39.99624 | -82.90363 | 812 ft | 19 kts | 274° |
| 2026-04-28 00:40 | 39.99635 | -82.90543 | 812 ft | 20 kts | 274° |
| 2026-04-28 00:40 | 39.99645 | -82.90723 | 811 ft | 19 kts | 274° |
| 2026-04-28 00:41 | 39.99629 | -82.90858 | 810 ft | 13 kts | 220° |
| 2026-04-28 00:41 | 39.99539 | -82.90884 | 810 ft | 13 kts | 185° |
| 2026-04-28 00:41 | 39.99450 | -82.90894 | 810 ft | 12 kts | 184° |
| 2026-04-28 00:41 | 39.99377 | -82.90861 | 810 ft | 11 kts | 122° |
| 2026-04-28 00:42 | 39.99355 | -82.90730 | 810 ft | 30 kts | 95° |
| 2026-04-28 00:42 | 39.99325 | -82.90138 | 810 ft | 98 kts | 94° |
| 2026-04-28 00:42 | 39.99257 | -82.89002 | 814 ft | 151 kts | 94° |
| 2026-04-28 00:42 | 39.99173 | -82.87570 | 1347 ft | 153 kts | 96° |
| 2026-04-28 00:43 | 39.99146 | -82.86248 | 1991 ft | 145 kts | 96° |
| 2026-04-28 00:43 | 39.99149 | -82.84892 | 2316 ft | 157 kts | 97° |
| 2026-04-28 00:43 | 39.99121 | -82.83411 | 2641 ft | 168 kts | 99° |
| 2026-04-28 00:43 | 39.99072 | -82.81824 | 2940 ft | 183 kts | 99° |
| 2026-04-28 00:44 | 39.98864 | -82.80178 | 3226 ft | 188 kts | 122° |
| 2026-04-28 00:44 | 39.97915 | -82.79050 | 3476 ft | 192 kts | 162° |
| 2026-04-28 00:44 | 39.96554 | -82.78868 | 3777 ft | 208 kts | 187° |
| 2026-04-28 00:44 | 39.95138 | -82.79517 | 4217 ft | 228 kts | 208° |
| 2026-04-28 00:45 | 39.93994 | -82.81036 | 4748 ft | 247 kts | 238° |
| 2026-04-28 00:45 | 39.93698 | -82.83284 | 5387 ft | 265 kts | 269° |
| 2026-04-28 00:45 | 39.94038 | -82.85674 | 6029 ft | 275 kts | 276° |
| 2026-04-28 00:45 | 39.94449 | -82.88100 | 6665 ft | 274 kts | 274° |
| 2026-04-28 00:46 | 39.94773 | -82.90533 | 7302 ft | 271 kts | 273° |
| 2026-04-28 00:46 | 39.95036 | -82.92980 | 7943 ft | 273 kts | 272° |
| 2026-04-28 00:46 | 39.95275 | -82.95393 | 8582 ft | 267 kts | 272° |
| 2026-04-28 00:46 | 39.95503 | -82.97776 | 9214 ft | 270 kts | 272° |
| 2026-04-28 00:47 | 39.95733 | -83.00178 | 9851 ft | 268 kts | 272° |
| 2026-04-28 00:47 | 39.95969 | -83.02628 | 10374 ft | 281 kts | 274° |
| 2026-04-28 00:47 | 39.96222 | -83.05232 | 10846 ft | 296 kts | 274° |
| 2026-04-28 00:47 | 39.96490 | -83.07945 | 11308 ft | 311 kts | 274° |
| 2026-04-28 00:48 | 39.96769 | -83.10783 | 11767 ft | 325 kts | 275° |
| 2026-04-28 00:48 | 39.97062 | -83.13756 | 12225 ft | 332 kts | 275° |
| 2026-04-28 00:48 | 39.97360 | -83.16749 | 12688 ft | 334 kts | 275° |
| 2026-04-28 00:48 | 39.97659 | -83.19777 | 13148 ft | 337 kts | 276° |
| 2026-04-28 00:49 | 39.97955 | -83.22788 | 13709 ft | 336 kts | 276° |
| 2026-04-28 00:49 | 39.98247 | -83.25781 | 14287 ft | 339 kts | 276° |
| 2026-04-28 00:49 | 39.98545 | -83.28857 | 14875 ft | 342 kts | 276° |
| 2026-04-28 00:49 | 39.98840 | -83.31913 | 15454 ft | 341 kts | 275° |
| 2026-04-28 00:50 | 39.99134 | -83.34981 | 16040 ft | 342 kts | 276° |
| 2026-04-28 00:50 | 39.99429 | -83.38071 | 16626 ft | 347 kts | 276° |
| 2026-04-28 00:50 | 39.99725 | -83.41181 | 17204 ft | 346 kts | 276° |
| 2026-04-28 00:50 | 40.00023 | -83.44304 | 17788 ft | 347 kts | 276° |
| 2026-04-28 00:51 | 40.00319 | -83.47420 | 18375 ft | 350 kts | 276° |
| 2026-04-28 00:51 | 40.00619 | -83.50584 | 18961 ft | 354 kts | 276° |
| 2026-04-28 00:51 | 40.00922 | -83.53777 | 19540 ft | 356 kts | 276° |
| 2026-04-28 00:51 | 40.01225 | -83.56982 | 20113 ft | 359 kts | 276° |
| 2026-04-28 00:52 | 40.01545 | -83.60193 | 20691 ft | 362 kts | 277° |
| 2026-04-28 00:52 | 40.01923 | -83.63430 | 21278 ft | 366 kts | 278° |
| 2026-04-28 00:52 | 40.02341 | -83.66740 | 21861 ft | 369 kts | 278° |
| 2026-04-28 00:52 | 40.02763 | -83.70016 | 22447 ft | 372 kts | 278° |
| 2026-04-28 00:53 | 40.03191 | -83.73347 | 23035 ft | 374 kts | 278° |
| 2026-04-28 00:53 | 40.03616 | -83.76699 | 23644 ft | 375 kts | 278° |
| 2026-04-28 00:53 | 40.04038 | -83.80048 | 24217 ft | 377 kts | 277° |
| 2026-04-28 00:53 | 40.04464 | -83.83463 | 24707 ft | 382 kts | 277° |
| 2026-04-28 00:54 | 40.04875 | -83.86888 | 25191 ft | 385 kts | 277° |
| 2026-04-28 00:54 | 40.05177 | -83.90329 | 25645 ft | 388 kts | 273° |
| 2026-04-28 00:54 | 40.05242 | -83.93871 | 25940 ft | 395 kts | 268° |
| 2026-04-28 00:54 | 40.05086 | -83.97478 | 26224 ft | 402 kts | 265° |